createdAt,value
2022-08-24T00:00:18.195Z,0.00
2022-08-24T00:01:18.113Z,0.00
2022-08-24T00:02:19.321Z,0.00
2022-08-24T00:03:18.521Z,0.00
2022-08-24T00:04:18.630Z,0.00
2022-08-24T00:05:19.688Z,0.00
2022-08-24T00:06:18.938Z,0.00
2022-08-24T00:07:27.327Z,0.00
2022-08-24T00:08:20.297Z,0.00
2022-08-24T00:09:19.409Z,0.00
2022-08-24T00:10:19.679Z,0.00
2022-08-24T00:11:19.793Z,0.00
2022-08-24T00:12:19.942Z,0.00
2022-08-24T00:13:20.063Z,0.00
2022-08-24T00:14:20.196Z,0.00
2022-08-24T00:15:20.468Z,0.00
2022-08-24T00:16:21.254Z,0.00
2022-08-24T00:17:20.791Z,0.00
2022-08-24T00:18:20.921Z,0.00
2022-08-24T00:19:21.050Z,0.00
2022-08-24T00:20:21.701Z,0.00
2022-08-24T00:21:22.189Z,0.00
2022-08-24T00:22:21.566Z,0.00
2022-08-24T00:23:21.730Z,0.00
2022-08-24T00:24:21.866Z,0.00
2022-08-24T00:25:22.006Z,0.00
2022-08-24T00:26:28.682Z,0.00
2022-08-24T00:27:23.372Z,0.00
2022-08-24T00:28:22.737Z,0.00
2022-08-24T00:29:22.746Z,0.00
2022-08-24T00:30:22.871Z,0.00
2022-08-24T00:31:23.078Z,0.00
2022-08-24T00:32:23.225Z,0.00
2022-08-24T00:33:23.399Z,0.00
2022-08-24T00:34:24.195Z,0.00
2022-08-24T00:35:23.715Z,0.00
2022-08-24T00:36:24.696Z,0.00
2022-08-24T00:37:24.081Z,0.00
2022-08-24T00:38:27.347Z,0.00
2022-08-24T00:39:24.466Z,0.00
2022-08-24T00:40:24.671Z,0.00
2022-08-24T00:41:24.750Z,0.00
2022-08-24T00:42:24.887Z,0.00
2022-08-24T00:43:25.063Z,0.00
2022-08-24T00:44:25.193Z,0.00
2022-08-24T00:45:25.412Z,0.00
2022-08-24T00:46:25.615Z,0.00
2022-08-24T00:47:26.215Z,0.00
2022-08-24T00:48:26.707Z,0.00
2022-08-24T00:49:26.201Z,0.00
2022-08-24T00:50:26.323Z,0.00
2022-08-24T00:51:26.469Z,0.00
2022-08-24T00:52:26.608Z,0.00
2022-08-24T00:53:27.215Z,0.00
2022-08-24T00:54:26.961Z,0.00
2022-08-24T00:55:27.111Z,0.00
2022-08-24T00:56:27.252Z,0.00
2022-08-24T00:57:27.446Z,0.00
2022-08-24T00:58:27.604Z,0.00
2022-08-24T00:59:27.724Z,0.00
2022-08-24T01:00:27.865Z,0.00
2022-08-24T01:01:28.064Z,0.00
2022-08-24T01:02:28.174Z,0.00
2022-08-24T01:03:28.713Z,0.00
2022-08-24T01:04:28.447Z,0.00
2022-08-24T01:05:28.682Z,0.00
2022-08-24T01:06:28.831Z,0.00
2022-08-24T01:07:28.961Z,0.00
2022-08-24T01:08:29.076Z,0.00
2022-08-24T01:09:29.233Z,0.00
2022-08-24T01:10:29.331Z,0.00
2022-08-24T01:11:30.881Z,0.00
2022-08-24T01:12:29.636Z,0.00
2022-08-24T01:13:29.817Z,0.00
2022-08-24T01:14:30.712Z,0.00
2022-08-24T01:15:30.099Z,0.00
2022-08-24T01:16:30.381Z,0.00
2022-08-24T01:17:33.926Z,0.00
2022-08-24T01:18:31.715Z,0.00
2022-08-24T01:19:31.712Z,0.00
2022-08-24T01:20:31.718Z,0.00
2022-08-24T01:21:31.242Z,0.00
2022-08-24T01:22:31.351Z,0.00
2022-08-24T01:23:36.557Z,0.00
2022-08-24T01:24:32.623Z,0.00
2022-08-24T01:25:31.854Z,0.00
2022-08-24T01:26:32.730Z,0.00
2022-08-24T01:27:32.716Z,0.00
2022-08-24T01:28:32.365Z,0.00
2022-08-24T01:29:32.552Z,0.00
2022-08-24T01:30:36.100Z,0.00
2022-08-24T01:31:32.984Z,0.00
2022-08-24T01:32:34.202Z,0.00
2022-08-24T01:33:34.216Z,0.00
2022-08-24T01:34:33.464Z,0.00
2022-08-24T01:35:33.606Z,0.00
2022-08-24T01:36:33.733Z,0.00
2022-08-24T01:37:34.717Z,0.00
2022-08-24T01:38:34.720Z,0.00
2022-08-24T01:39:34.253Z,0.00
2022-08-24T01:40:34.375Z,0.00
2022-08-24T01:41:35.267Z,0.00
2022-08-24T01:42:35.225Z,0.00
2022-08-24T01:43:37.137Z,0.00
2022-08-24T01:44:35.098Z,0.00
2022-08-24T01:45:35.247Z,0.00
2022-08-24T01:46:36.282Z,0.00
2022-08-24T01:47:36.551Z,0.00
2022-08-24T01:48:35.682Z,0.00
2022-08-24T01:49:36.236Z,0.00
2022-08-24T01:50:36.718Z,0.00
2022-08-24T01:51:36.109Z,0.00
2022-08-24T01:53:03.460Z,0.00
2022-08-24T01:53:39.224Z,0.00
2022-08-24T01:54:36.738Z,0.00
2022-08-24T01:55:36.892Z,0.00
2022-08-24T01:56:37.927Z,0.00
2022-08-24T01:57:37.231Z,0.00
2022-08-24T01:58:37.381Z,0.00
2022-08-24T01:59:37.553Z,0.00
2022-08-24T02:00:37.721Z,0.00
2022-08-24T02:01:38.797Z,0.00
2022-08-24T02:02:38.106Z,0.00
2022-08-24T02:03:38.287Z,0.00
2022-08-24T02:04:38.739Z,0.00
2022-08-24T02:05:38.706Z,0.00
2022-08-24T02:06:38.874Z,0.00
2022-08-24T02:07:40.056Z,0.00
2022-08-24T02:08:39.733Z,0.00
2022-08-24T02:09:40.234Z,0.00
2022-08-24T02:10:39.739Z,0.00
2022-08-24T02:11:40.252Z,0.00
2022-08-24T02:12:40.244Z,0.00
2022-08-24T02:13:40.035Z,0.00
2022-08-24T02:14:40.211Z,0.00
2022-08-24T02:15:41.269Z,0.00
2022-08-24T02:16:40.552Z,0.00
2022-08-24T02:17:40.703Z,0.00
2022-08-24T02:18:40.878Z,0.00
2022-08-24T02:19:41.740Z,0.00
2022-08-24T02:20:41.278Z,0.00
2022-08-24T02:21:41.462Z,0.00
2022-08-24T02:22:41.615Z,0.00
2022-08-24T02:23:42.734Z,0.00
2022-08-24T02:24:42.002Z,0.00
2022-08-24T02:25:42.226Z,0.00
2022-08-24T02:26:42.430Z,0.00
2022-08-24T02:27:42.587Z,0.00
2022-08-24T02:28:43.734Z,0.00
2022-08-24T02:29:43.741Z,0.00
2022-08-24T02:30:43.161Z,0.00
2022-08-24T02:31:43.333Z,0.00
2022-08-24T02:32:44.237Z,0.00
2022-08-24T02:33:43.653Z,0.00
2022-08-24T02:34:43.812Z,0.00
2022-08-24T02:35:44.001Z,0.00
2022-08-24T02:36:44.743Z,0.00
2022-08-24T02:37:44.379Z,0.00
2022-08-24T02:38:44.523Z,0.00
2022-08-24T02:39:44.707Z,0.00
2022-08-24T02:40:45.250Z,0.00
2022-08-24T02:41:45.053Z,0.00
2022-08-24T02:42:45.201Z,0.00
2022-08-24T02:43:45.355Z,0.00
2022-08-24T02:44:45.751Z,0.00
2022-08-24T02:45:53.096Z,0.00
2022-08-24T02:46:47.999Z,0.00
2022-08-24T02:47:46.075Z,0.00
2022-08-24T02:48:46.743Z,0.00
2022-08-24T02:49:47.368Z,0.00
2022-08-24T02:50:46.509Z,0.00
2022-08-24T02:51:46.681Z,0.00
2022-08-24T02:52:46.843Z,0.00
2022-08-24T02:53:46.986Z,0.00
2022-08-24T02:54:47.150Z,0.00
2022-08-24T02:55:48.245Z,0.00
2022-08-24T02:56:47.488Z,0.00
2022-08-24T02:57:47.658Z,0.00
2022-08-24T02:58:47.796Z,0.00
2022-08-24T02:59:47.954Z,0.00
2022-08-24T03:00:48.121Z,0.00
2022-08-24T03:01:49.807Z,0.00
2022-08-24T03:02:48.486Z,0.00
2022-08-24T03:03:49.247Z,0.00
2022-08-24T03:04:49.444Z,0.00
2022-08-24T03:05:49.105Z,0.00
2022-08-24T03:06:49.261Z,0.00
2022-08-24T03:07:49.432Z,0.00
2022-08-24T03:08:56.682Z,0.00
2022-08-24T03:09:50.701Z,0.00
2022-08-24T03:10:50.746Z,0.00
2022-08-24T03:11:50.009Z,0.00
2022-08-24T03:12:50.751Z,0.00
2022-08-24T03:13:50.409Z,0.00
2022-08-24T03:14:50.622Z,0.00
2022-08-24T03:15:50.870Z,0.00
2022-08-24T03:16:50.964Z,0.00
2022-08-24T03:17:51.151Z,0.00
2022-08-24T03:18:51.337Z,0.00
2022-08-24T03:19:51.777Z,0.00
2022-08-24T03:20:51.765Z,0.00
2022-08-24T03:21:52.756Z,0.00
2022-08-24T03:22:52.755Z,0.00
2022-08-24T03:23:52.257Z,0.00
2022-08-24T03:24:52.421Z,0.00
2022-08-24T03:25:52.577Z,0.00
2022-08-24T03:26:52.755Z,0.00
2022-08-24T03:27:52.932Z,0.00
2022-08-24T03:28:53.174Z,0.00
2022-08-24T03:29:53.365Z,0.00
2022-08-24T03:30:53.572Z,0.00
2022-08-24T03:31:54.758Z,0.00
2022-08-24T03:32:54.761Z,0.00
2022-08-24T03:33:54.038Z,0.00
2022-08-24T03:34:54.224Z,0.00
2022-08-24T03:35:54.391Z,0.00
2022-08-24T03:36:54.588Z,0.00
2022-08-24T03:37:54.748Z,0.00
2022-08-24T03:38:54.923Z,0.00
2022-08-24T03:39:55.065Z,0.00
2022-08-24T03:40:55.253Z,0.00
2022-08-24T03:41:55.774Z,0.00
2022-08-24T03:42:55.516Z,0.00
2022-08-24T03:43:55.688Z,0.00
2022-08-24T03:44:55.825Z,0.00
2022-08-24T03:45:56.780Z,0.00
2022-08-24T03:46:56.193Z,0.00
2022-08-24T03:47:56.329Z,0.00
2022-08-24T03:48:56.779Z,0.00
2022-08-24T03:49:56.774Z,0.00
2022-08-24T03:50:57.793Z,0.00
2022-08-24T03:51:56.923Z,0.00
2022-08-24T03:52:57.137Z,0.00
2022-08-24T03:53:57.214Z,0.00
2022-08-24T03:54:57.358Z,0.00
2022-08-24T03:55:57.485Z,4.00
2022-08-24T03:56:58.266Z,4.00
2022-08-24T03:57:57.774Z,0.00
2022-08-24T03:58:57.917Z,0.00
2022-08-24T03:59:58.069Z,4.00
2022-08-24T04:00:58.250Z,0.00
2022-08-24T04:01:58.395Z,4.00
2022-08-24T04:02:58.556Z,4.00
2022-08-24T04:03:59.268Z,4.00
2022-08-24T04:04:58.929Z,4.00
2022-08-24T04:05:59.285Z,4.00
2022-08-24T04:06:59.784Z,8.00
2022-08-24T04:07:59.471Z,4.00
2022-08-24T04:08:59.603Z,8.00
2022-08-24T04:10:00.272Z,8.00
2022-08-24T04:10:59.898Z,12.00
2022-08-24T04:12:00.091Z,12.00
2022-08-24T04:13:00.770Z,12.00
2022-08-24T04:14:01.283Z,16.00
2022-08-24T04:15:00.643Z,20.00
2022-08-24T04:16:00.767Z,24.00
2022-08-24T04:17:00.971Z,24.00
2022-08-24T04:18:01.040Z,28.00
2022-08-24T04:19:01.201Z,32.00
2022-08-24T04:20:02.275Z,36.00
2022-08-24T04:21:01.498Z,40.00
2022-08-24T04:22:01.660Z,44.00
2022-08-24T04:23:01.848Z,52.00
2022-08-24T04:24:02.034Z,56.00
2022-08-24T04:25:02.195Z,60.00
2022-08-24T04:26:04.282Z,64.00
2022-08-24T04:27:02.487Z,72.00
2022-08-24T04:28:02.787Z,76.00
2022-08-24T04:29:02.799Z,84.00
2022-08-24T04:30:04.291Z,92.00
2022-08-24T04:31:03.245Z,96.00
2022-08-24T04:32:03.434Z,108.00
2022-08-24T04:33:03.816Z,112.00
2022-08-24T04:34:04.778Z,120.00
2022-08-24T04:35:03.984Z,132.00
2022-08-24T04:36:04.151Z,140.00
2022-08-24T04:37:07.496Z,156.00
2022-08-24T04:38:05.286Z,164.00
2022-08-24T04:39:05.777Z,176.00
2022-08-24T04:40:05.082Z,188.00
2022-08-24T04:41:05.250Z,204.00
2022-08-24T04:42:05.377Z,208.00
2022-08-24T04:43:05.651Z,224.00
2022-08-24T04:44:06.281Z,236.00
2022-08-24T04:45:05.973Z,260.00
2022-08-24T04:46:06.175Z,268.00
2022-08-24T04:47:06.784Z,284.00
2022-08-24T04:48:06.407Z,300.00
2022-08-24T04:49:06.565Z,324.00
2022-08-24T04:50:06.750Z,336.00
2022-08-24T04:51:07.506Z,368.00
2022-08-24T04:52:07.114Z,372.00
2022-08-24T04:53:07.785Z,396.00
2022-08-24T04:54:08.292Z,424.00
2022-08-24T04:55:07.798Z,424.00
2022-08-24T04:56:07.879Z,448.00
2022-08-24T04:57:08.147Z,468.00
2022-08-24T04:58:08.808Z,484.00
2022-08-24T04:59:08.440Z,508.00
2022-08-24T05:00:08.583Z,528.00
2022-08-24T05:01:08.798Z,556.00
2022-08-24T05:02:08.981Z,568.00
2022-08-24T05:03:09.170Z,584.00
2022-08-24T05:04:09.808Z,600.00
2022-08-24T05:05:09.440Z,624.00
2022-08-24T05:06:09.580Z,644.00
2022-08-24T05:07:10.810Z,664.00
2022-08-24T05:08:10.052Z,672.00
2022-08-24T05:09:10.235Z,692.00
2022-08-24T05:10:11.291Z,720.00
2022-08-24T05:11:10.612Z,744.00
2022-08-24T05:12:10.779Z,760.00
2022-08-24T05:13:10.925Z,764.00
2022-08-24T05:14:11.238Z,796.00
2022-08-24T05:15:11.304Z,808.00
2022-08-24T05:16:11.560Z,832.00
2022-08-24T05:17:11.656Z,868.00
2022-08-24T05:18:11.835Z,872.00
2022-08-24T05:19:12.813Z,884.00
2022-08-24T05:20:12.305Z,920.00
2022-08-24T05:21:13.299Z,932.00
2022-08-24T05:22:12.554Z,956.00
2022-08-24T05:23:12.704Z,964.00
2022-08-24T05:24:13.805Z,976.00
2022-08-24T05:25:13.038Z,1004.00
2022-08-24T05:26:13.161Z,1016.00
2022-08-24T05:27:14.148Z,1028.00
2022-08-24T05:28:13.635Z,1056.00
2022-08-24T05:29:13.817Z,1064.00
2022-08-24T05:30:14.024Z,1088.00
2022-08-24T05:31:14.218Z,1084.00
2022-08-24T05:32:14.373Z,1100.00
2022-08-24T05:33:15.324Z,1120.00
2022-08-24T05:34:14.704Z,1148.00
2022-08-24T05:35:15.814Z,1156.00
2022-08-24T05:36:15.069Z,1172.00
2022-08-24T05:37:15.267Z,1188.00
2022-08-24T05:38:16.317Z,1212.00
2022-08-24T05:39:15.579Z,1228.00
2022-08-24T05:40:15.838Z,1248.00
2022-08-24T05:41:16.806Z,1264.00
2022-08-24T05:42:16.212Z,1292.00
2022-08-24T05:43:17.312Z,1308.00
2022-08-24T05:44:17.309Z,1324.00
2022-08-24T05:45:17.806Z,1352.00
2022-08-24T05:46:17.848Z,1368.00
2022-08-24T05:47:17.287Z,1392.00
2022-08-24T05:48:17.431Z,1412.00
2022-08-24T05:49:17.578Z,1440.00
2022-08-24T05:50:17.750Z,1464.00
2022-08-24T05:51:18.318Z,1496.00
2022-08-24T05:52:18.078Z,1516.00
2022-08-24T05:53:18.809Z,1632.00
2022-08-24T05:54:18.446Z,1664.00
2022-08-24T05:55:18.603Z,1588.00
2022-08-24T05:56:18.766Z,1620.00
2022-08-24T05:57:18.885Z,1652.00
2022-08-24T05:58:23.077Z,1708.00
2022-08-24T05:59:20.245Z,1744.00
2022-08-24T06:00:19.483Z,1756.00
2022-08-24T06:01:19.820Z,1848.00
2022-08-24T06:02:19.948Z,2520.00
2022-08-24T06:03:20.015Z,3028.00
2022-08-24T06:04:20.322Z,6748.00
2022-08-24T06:05:20.322Z,8112.00
2022-08-24T06:06:21.353Z,4560.00
2022-08-24T06:07:21.310Z,2184.00
2022-08-24T06:08:20.816Z,2028.00
2022-08-24T06:09:21.334Z,2016.00
2022-08-24T06:10:36.292Z,2056.00
2022-08-24T06:11:23.327Z,2080.00
2022-08-24T06:12:22.551Z,2112.00
2022-08-24T06:13:21.770Z,2128.00
2022-08-24T06:14:26.390Z,2164.00
2022-08-24T06:15:24.821Z,2180.00
2022-08-24T06:16:22.897Z,2200.00
2022-08-24T06:17:22.541Z,2220.00
2022-08-24T06:18:23.318Z,2248.00
2022-08-24T06:19:22.822Z,2276.00
2022-08-24T06:20:22.973Z,2296.00
2022-08-24T06:21:23.137Z,2316.00
2022-08-24T06:22:23.824Z,2344.00
2022-08-24T06:23:23.442Z,2384.00
2022-08-24T06:24:24.320Z,2400.00
2022-08-24T06:25:23.831Z,2408.00
2022-08-24T06:26:23.970Z,2452.00
2022-08-24T06:27:24.106Z,2468.00
2022-08-24T06:28:24.820Z,2468.00
2022-08-24T06:29:24.432Z,2508.00
2022-08-24T06:30:30.502Z,2532.00
2022-08-24T06:31:25.913Z,2556.00
2022-08-24T06:32:24.904Z,2600.00
2022-08-24T06:33:25.849Z,2616.00
2022-08-24T06:34:25.826Z,2628.00
2022-08-24T06:35:26.324Z,2664.00
2022-08-24T06:36:25.597Z,2696.00
2022-08-24T06:37:26.333Z,2712.00
2022-08-24T06:38:26.824Z,2780.00
2022-08-24T06:39:26.191Z,2788.00
2022-08-24T06:40:26.533Z,2804.00
2022-08-24T06:41:27.323Z,2844.00
2022-08-24T06:42:26.704Z,2896.00
2022-08-24T06:43:26.834Z,2884.00
2022-08-24T06:44:26.966Z,2920.00
2022-08-24T06:45:27.196Z,2940.00
2022-08-24T06:46:30.733Z,2972.00
2022-08-24T06:47:29.847Z,2980.00
2022-08-24T06:48:27.846Z,3024.00
2022-08-24T06:49:27.739Z,3016.00
2022-08-24T06:50:27.868Z,3012.00
2022-08-24T06:51:28.012Z,3108.00
2022-08-24T06:52:28.348Z,3056.00
2022-08-24T06:53:28.370Z,3048.00
2022-08-24T06:54:29.336Z,3028.00
2022-08-24T06:55:28.710Z,3112.00
2022-08-24T06:56:29.839Z,3116.00
2022-08-24T06:57:29.106Z,3128.00
2022-08-24T06:58:29.830Z,3136.00
2022-08-24T06:59:30.335Z,3160.00
2022-08-24T07:00:29.605Z,3180.00
2022-08-24T07:01:29.798Z,3176.00
2022-08-24T07:02:30.032Z,3204.00
2022-08-24T07:03:30.345Z,3208.00
2022-08-24T07:04:30.394Z,3200.00
2022-08-24T07:06:03.449Z,3224.00
2022-08-24T07:06:30.682Z,3220.00
2022-08-24T07:07:30.824Z,3256.00
2022-08-24T07:08:31.870Z,3256.00
2022-08-24T07:09:31.167Z,3276.00
2022-08-24T07:10:31.315Z,3288.00
2022-08-24T07:11:31.472Z,3312.00
2022-08-24T07:12:31.649Z,3368.00
2022-08-24T07:13:31.785Z,3360.00
2022-08-24T07:14:31.965Z,3368.00
2022-08-24T07:15:32.933Z,3388.00
2022-08-24T07:16:32.869Z,3388.00
2022-08-24T07:17:33.370Z,3404.00
2022-08-24T07:18:33.391Z,3396.00
2022-08-24T07:19:33.391Z,3436.00
2022-08-24T07:20:33.046Z,3424.00
2022-08-24T07:21:33.387Z,3424.00
2022-08-24T07:22:33.420Z,3524.00
2022-08-24T07:23:41.216Z,3500.00
2022-08-24T07:24:35.397Z,3492.00
2022-08-24T07:25:33.931Z,3520.00
2022-08-24T07:26:34.070Z,3508.00
2022-08-24T07:27:34.259Z,3768.00
2022-08-24T07:28:35.439Z,3904.00
2022-08-24T07:29:50.357Z,4828.00
2022-08-24T07:30:36.763Z,9636.00
2022-08-24T07:31:35.714Z,21376.00
2022-08-24T07:32:36.378Z,27552.00
2022-08-24T07:33:36.270Z,24032.00
2022-08-24T07:34:35.395Z,16000.00
2022-08-24T07:35:36.372Z,9540.00
2022-08-24T07:36:37.407Z,6368.00
2022-08-24T07:37:41.464Z,6104.00
2022-08-24T07:38:37.391Z,12888.00
2022-08-24T07:39:36.884Z,9712.00
2022-08-24T07:41:01.765Z,13448.00
2022-08-24T07:41:56.763Z,16096.00
2022-08-24T07:42:38.858Z,5216.00
2022-08-24T07:43:36.986Z,3864.00
2022-08-24T07:44:37.880Z,3784.00
2022-08-24T07:45:37.437Z,3856.00
2022-08-24T07:46:37.665Z,7444.00
2022-08-24T07:47:41.635Z,19936.00
2022-08-24T07:48:39.924Z,17696.00
2022-08-24T07:49:39.542Z,26976.00
2022-08-24T07:50:38.299Z,50304.00
2022-08-24T07:51:39.382Z,59904.00
2022-08-24T07:52:39.624Z,36608.00
2022-08-24T07:53:53.057Z,6268.00
2022-08-24T07:54:41.886Z,6376.00
2022-08-24T07:55:40.927Z,9408.00
2022-08-24T07:56:40.271Z,8164.00
2022-08-24T07:57:40.389Z,7308.00
2022-08-24T07:58:39.690Z,8632.00
2022-08-24T07:59:39.846Z,7460.00
2022-08-24T08:00:39.990Z,7336.00
2022-08-24T08:01:40.207Z,5108.00
2022-08-24T08:02:40.437Z,3464.00
2022-08-24T08:03:40.523Z,4780.00
2022-08-24T08:04:40.669Z,6876.00
2022-08-24T08:05:40.821Z,18880.00
2022-08-24T08:06:41.902Z,16768.00
2022-08-24T08:07:41.889Z,5196.00
2022-08-24T08:08:41.895Z,4244.00
2022-08-24T08:09:41.510Z,6232.00
2022-08-24T08:10:41.901Z,6108.00
2022-08-24T08:11:41.927Z,4740.00
2022-08-24T08:12:42.068Z,13580.00
2022-08-24T08:14:43.368Z,16928.00
2022-08-24T08:15:42.653Z,25632.00
2022-08-24T08:16:42.814Z,27360.00
2022-08-24T08:17:43.063Z,36800.00
2022-08-24T08:18:43.413Z,30240.00
2022-08-24T08:19:44.427Z,17312.00
2022-08-24T08:20:43.653Z,17376.00
2022-08-24T08:21:43.789Z,22112.00
2022-08-24T08:22:44.413Z,9384.00
2022-08-24T08:23:44.420Z,5640.00
2022-08-24T08:24:44.197Z,3796.00
2022-08-24T08:25:47.329Z,3800.00
2022-08-24T08:26:46.405Z,3876.00
2022-08-24T08:27:45.407Z,4116.00
2022-08-24T08:28:45.419Z,4900.00
2022-08-24T08:29:45.208Z,4928.00
2022-08-24T08:30:45.388Z,4136.00
2022-08-24T08:31:46.398Z,3992.00
2022-08-24T08:32:45.737Z,3940.00
2022-08-24T08:33:45.880Z,4760.00
2022-08-24T08:34:46.417Z,3860.00
2022-08-24T08:35:46.139Z,8988.00
2022-08-24T08:36:46.368Z,9920.00
2022-08-24T08:37:47.398Z,3540.00
2022-08-24T08:38:46.609Z,3572.00
2022-08-24T08:39:47.019Z,4928.00
2022-08-24T08:40:47.422Z,3856.00
2022-08-24T08:41:47.904Z,3352.00
2022-08-24T08:42:47.367Z,3332.00
2022-08-24T08:43:47.606Z,3572.00
2022-08-24T08:44:47.852Z,3744.00
2022-08-24T08:45:49.032Z,3264.00
2022-08-24T08:46:48.906Z,3304.00
2022-08-24T08:47:48.447Z,3268.00
2022-08-24T08:48:49.409Z,3344.00
2022-08-24T08:49:49.408Z,3600.00
2022-08-24T08:50:48.934Z,3548.00
2022-08-24T08:51:49.073Z,3460.00
2022-08-24T08:52:49.442Z,3288.00
2022-08-24T08:53:49.436Z,3232.00
2022-08-24T08:54:49.432Z,3260.00
2022-08-24T08:55:49.567Z,3164.00
2022-08-24T08:56:49.774Z,3308.00
2022-08-24T08:57:50.030Z,3280.00
2022-08-24T08:58:57.398Z,3228.00
2022-08-24T08:59:51.373Z,3144.00
2022-08-24T09:00:50.923Z,3084.00
2022-08-24T09:01:50.760Z,4168.00
2022-08-24T09:02:51.411Z,6552.00
2022-08-24T09:03:51.046Z,3856.00
2022-08-24T09:04:51.213Z,3296.00
2022-08-24T09:05:51.417Z,3140.00
2022-08-24T09:06:52.420Z,3156.00
2022-08-24T09:07:51.674Z,3136.00
2022-08-24T09:08:52.043Z,3280.00
2022-08-24T09:09:52.929Z,3440.00
2022-08-24T09:10:52.427Z,5208.00
2022-08-24T09:11:52.912Z,5968.00
2022-08-24T09:12:52.514Z,7332.00
2022-08-24T09:13:52.930Z,7568.00
2022-08-24T09:14:53.417Z,5004.00
2022-08-24T09:15:55.995Z,5540.00
2022-08-24T09:16:53.213Z,6940.00
2022-08-24T09:17:53.941Z,8180.00
2022-08-24T09:18:53.484Z,14620.00
2022-08-24T09:19:54.428Z,15168.00
2022-08-24T09:20:54.424Z,16000.00
2022-08-24T09:21:54.479Z,4360.00
2022-08-24T09:22:54.931Z,3388.00
2022-08-24T09:23:54.434Z,3272.00
2022-08-24T09:24:54.470Z,3688.00
2022-08-24T09:25:54.611Z,5932.00
2022-08-24T09:26:54.757Z,10212.00
2022-08-24T09:27:54.946Z,8336.00
2022-08-24T09:28:55.156Z,8052.00
2022-08-24T09:29:55.297Z,4684.00
2022-08-24T09:30:55.990Z,4552.00
2022-08-24T09:31:56.446Z,4812.00
2022-08-24T09:32:55.833Z,4256.00
2022-08-24T09:33:56.001Z,4492.00
2022-08-24T09:34:56.167Z,4308.00
2022-08-24T09:35:56.320Z,3936.00
2022-08-24T09:36:56.475Z,4560.00
2022-08-24T09:37:56.639Z,5640.00
2022-08-24T09:38:56.940Z,5344.00
2022-08-24T09:39:57.016Z,6916.00
2022-08-24T09:40:57.068Z,4940.00
2022-08-24T09:41:57.237Z,4444.00
2022-08-24T09:42:58.383Z,5360.00
2022-08-24T09:44:01.418Z,5160.00
2022-08-24T09:44:59.647Z,7236.00
2022-08-24T09:45:57.906Z,8464.00
2022-08-24T09:46:58.934Z,7396.00
2022-08-24T09:47:58.167Z,4728.00
2022-08-24T09:48:58.310Z,3900.00
2022-08-24T09:49:58.456Z,3216.00
2022-08-24T09:50:59.438Z,3120.00
2022-08-24T09:51:59.436Z,2880.00
2022-08-24T09:52:58.948Z,2840.00
2022-08-24T09:53:59.232Z,3100.00
2022-08-24T09:54:59.935Z,3712.00
2022-08-24T09:56:00.434Z,3292.00
2022-08-24T09:57:12.220Z,2872.00
2022-08-24T09:58:02.008Z,2940.00
2022-08-24T09:59:01.442Z,2900.00
2022-08-24T10:00:00.940Z,2664.00
2022-08-24T10:01:00.487Z,2932.00
2022-08-24T10:02:00.707Z,2772.00
2022-08-24T10:03:00.874Z,2856.00
2022-08-24T10:04:01.020Z,4080.00
2022-08-24T10:05:01.229Z,4280.00
2022-08-24T10:06:01.444Z,3864.00
2022-08-24T10:07:02.448Z,3652.00
2022-08-24T10:08:02.471Z,4312.00
2022-08-24T10:09:01.988Z,5468.00
2022-08-24T10:10:02.112Z,4684.00
2022-08-24T10:11:02.242Z,3944.00
2022-08-24T10:12:02.947Z,3192.00
2022-08-24T10:13:02.955Z,3480.00
2022-08-24T10:14:03.445Z,3248.00
2022-08-24T10:15:03.041Z,3592.00
2022-08-24T10:16:03.365Z,3784.00
2022-08-24T10:17:03.948Z,5216.00
2022-08-24T10:18:03.703Z,4696.00
2022-08-24T10:19:03.696Z,3764.00
2022-08-24T10:20:04.453Z,3540.00
2022-08-24T10:21:04.947Z,3136.00
2022-08-24T10:22:04.942Z,2960.00
2022-08-24T10:23:04.470Z,2912.00
2022-08-24T10:24:04.723Z,2872.00
2022-08-24T10:25:04.939Z,2836.00
2022-08-24T10:26:05.968Z,2960.00
2022-08-24T10:27:05.195Z,2968.00
2022-08-24T10:28:06.007Z,2784.00
2022-08-24T10:29:05.482Z,2788.00
2022-08-24T10:30:05.721Z,2816.00
2022-08-24T10:31:08.726Z,2844.00
2022-08-24T10:32:07.044Z,3436.00
2022-08-24T10:33:06.252Z,3864.00
2022-08-24T10:34:06.374Z,3704.00
2022-08-24T10:35:08.048Z,3332.00
2022-08-24T10:36:06.742Z,3288.00
2022-08-24T10:37:06.983Z,3472.00
2022-08-24T10:38:07.976Z,3296.00
2022-08-24T10:39:07.325Z,3068.00
2022-08-24T10:40:09.564Z,2976.00
2022-08-24T10:41:07.638Z,2752.00
2022-08-24T10:42:07.809Z,2712.00
2022-08-24T10:43:08.020Z,2732.00
2022-08-24T10:44:08.157Z,2688.00
2022-08-24T10:45:08.317Z,3024.00
2022-08-24T10:46:08.549Z,3080.00
2022-08-24T10:47:08.646Z,3044.00
2022-08-24T10:48:08.783Z,2848.00
2022-08-24T10:49:09.463Z,2804.00
2022-08-24T10:50:09.962Z,3048.00
2022-08-24T10:51:09.971Z,3036.00
2022-08-24T10:52:09.443Z,2624.00
2022-08-24T10:53:09.981Z,2632.00
2022-08-24T10:54:10.481Z,2604.00
2022-08-24T10:55:09.974Z,2584.00
2022-08-24T10:56:10.078Z,2696.00
2022-08-24T10:57:12.442Z,2648.00
2022-08-24T10:58:12.460Z,2592.00
2022-08-24T10:59:10.641Z,2688.00
2022-08-24T11:00:10.981Z,2840.00
2022-08-24T11:01:12.011Z,2808.00
2022-08-24T11:02:12.690Z,2900.00
2022-08-24T11:03:11.423Z,2904.00
2022-08-24T11:04:11.978Z,2736.00
2022-08-24T11:05:12.460Z,2624.00
2022-08-24T11:06:12.061Z,2640.00
2022-08-24T11:07:12.489Z,2664.00
2022-08-24T11:08:12.332Z,2660.00
2022-08-24T11:09:17.212Z,2512.00
2022-08-24T11:10:14.704Z,2692.00
2022-08-24T11:11:12.894Z,2656.00
2022-08-24T11:12:13.015Z,2676.00
2022-08-24T11:13:13.488Z,2616.00
2022-08-24T11:14:13.372Z,1676.00
2022-08-24T11:15:13.517Z,1548.00
2022-08-24T11:16:13.672Z,1796.00
2022-08-24T11:17:14.468Z,2376.00
2022-08-24T11:18:14.000Z,1544.00
2022-08-24T11:19:14.158Z,1504.00
2022-08-24T11:20:14.282Z,1520.00
2022-08-24T11:21:14.969Z,1804.00
2022-08-24T11:22:14.581Z,2136.00
2022-08-24T11:23:14.718Z,1684.00
2022-08-24T11:24:14.880Z,1572.00
2022-08-24T11:25:49.937Z,1584.00
2022-08-24T11:26:16.017Z,1612.00
2022-08-24T11:27:15.364Z,2052.00
2022-08-24T11:28:16.018Z,2708.00
2022-08-24T11:29:15.676Z,2560.00
2022-08-24T11:30:15.796Z,1636.00
2022-08-24T11:31:16.570Z,1612.00
2022-08-24T11:32:17.018Z,1620.00
2022-08-24T11:33:16.388Z,1672.00
2022-08-24T11:34:16.536Z,1660.00
2022-08-24T11:35:17.514Z,1764.00
2022-08-24T11:36:21.148Z,2536.00
2022-08-24T11:37:19.973Z,2740.00
2022-08-24T11:38:17.289Z,2204.00
2022-08-24T11:39:17.532Z,2816.00
2022-08-24T11:40:17.734Z,2952.00
2022-08-24T11:41:18.897Z,2920.00
2022-08-24T11:42:18.138Z,2940.00
2022-08-24T11:43:18.257Z,3040.00
2022-08-24T11:44:18.404Z,1704.00
2022-08-24T11:45:18.551Z,1588.00
2022-08-24T11:46:19.621Z,1620.00
2022-08-24T11:47:19.907Z,1640.00
2022-08-24T11:48:20.024Z,2080.00
2022-08-24T11:49:19.168Z,2000.00
2022-08-24T11:50:19.537Z,2532.00
2022-08-24T11:51:20.535Z,2944.00
2022-08-24T11:52:20.532Z,3300.00
2022-08-24T11:53:20.524Z,3112.00
2022-08-24T11:54:20.061Z,3316.00
2022-08-24T11:55:22.344Z,3380.00
2022-08-24T11:56:21.542Z,3392.00
2022-08-24T11:57:22.639Z,3404.00
2022-08-24T11:58:21.530Z,3388.00
2022-08-24T11:59:20.922Z,3316.00
2022-08-24T12:00:22.029Z,3352.00
2022-08-24T12:01:21.268Z,3380.00
2022-08-24T12:02:22.171Z,1572.00
2022-08-24T12:03:22.585Z,1576.00
2022-08-24T12:04:21.807Z,1540.00
2022-08-24T12:05:21.965Z,1524.00
2022-08-24T12:06:22.127Z,1520.00
2022-08-24T12:07:23.257Z,1512.00
2022-08-24T12:08:22.419Z,1524.00
2022-08-24T12:09:22.584Z,1540.00
2022-08-24T12:10:24.239Z,1592.00
2022-08-24T12:11:22.987Z,1636.00
2022-08-24T12:12:23.221Z,1644.00
2022-08-24T12:13:23.544Z,1880.00
2022-08-24T12:14:24.536Z,2120.00
2022-08-24T12:15:23.685Z,3288.00
2022-08-24T12:16:23.935Z,3576.00
2022-08-24T12:17:24.559Z,3544.00
2022-08-24T12:18:24.235Z,3508.00
2022-08-24T12:19:24.450Z,3280.00
2022-08-24T12:20:25.537Z,3620.00
2022-08-24T12:21:25.539Z,3700.00
2022-08-24T12:22:24.930Z,3716.00
2022-08-24T12:23:25.549Z,3696.00
2022-08-24T12:24:25.338Z,3692.00
2022-08-24T12:25:25.531Z,3692.00
2022-08-24T12:26:25.719Z,3732.00
2022-08-24T12:27:26.540Z,3688.00
2022-08-24T12:28:26.042Z,3620.00
2022-08-24T12:29:26.216Z,3592.00
2022-08-24T12:30:26.363Z,3588.00
2022-08-24T12:31:27.125Z,3556.00
2022-08-24T12:32:26.775Z,3572.00
2022-08-24T12:33:26.931Z,3568.00